createdAt,value
2019-01-11T00:00:57.179Z,1.00
2019-01-11T00:03:26.598Z,1.00
2019-01-11T00:05:56.163Z,1.00
2019-01-11T00:08:25.461Z,1.00
2019-01-11T00:10:54.505Z,1.00
2019-01-11T00:13:23.521Z,1.00
2019-01-11T00:15:52.586Z,1.00
2019-01-11T00:18:21.505Z,1.00
2019-01-11T00:20:50.431Z,1.00
2019-01-11T00:23:19.454Z,1.00
2019-01-11T00:25:48.397Z,1.00
2019-01-11T00:28:17.520Z,1.00
2019-01-11T00:30:46.722Z,1.00
2019-01-11T00:33:16.206Z,1.00
2019-01-11T00:35:45.404Z,1.00
2019-01-11T00:38:14.637Z,1.00
2019-01-11T00:40:43.638Z,1.00
2019-01-11T00:43:15.103Z,1.00
2019-01-11T00:45:43.389Z,1.00
2019-01-11T00:48:12.393Z,1.00
2019-01-11T00:50:41.659Z,1.00
2019-01-11T00:53:11.980Z,1.00
2019-01-11T00:55:41.016Z,1.00
2019-01-11T00:58:10.068Z,1.00
2019-01-11T01:00:39.146Z,1.00
2019-01-11T01:03:08.161Z,1.00
2019-01-11T01:05:37.191Z,1.00
2019-01-11T01:08:06.241Z,1.00
2019-01-11T01:10:35.393Z,1.00
2019-01-11T01:13:04.432Z,1.00
2019-01-11T01:15:33.433Z,1.00
2019-01-11T01:18:02.461Z,1.00
2019-01-11T01:20:31.521Z,1.00
2019-01-11T01:23:00.763Z,1.00
2019-01-11T01:25:30.031Z,1.00
2019-01-11T01:27:58.996Z,1.00
2019-01-11T01:30:28.242Z,1.00
2019-01-11T01:32:57.455Z,1.00
2019-01-11T01:35:26.460Z,1.00
2019-01-11T01:37:55.702Z,1.00
2019-01-11T01:40:24.982Z,1.00
2019-01-11T01:42:53.902Z,1.00
2019-01-11T01:45:22.900Z,1.00
2019-01-11T01:47:51.826Z,1.00
2019-01-11T01:50:21.120Z,1.00
2019-01-11T01:52:50.087Z,1.00
2019-01-11T01:55:19.353Z,1.00
2019-01-11T01:57:48.328Z,1.00
2019-01-11T02:00:19.402Z,1.00
2019-01-11T02:02:48.723Z,1.00
2019-01-11T02:05:18.124Z,1.00
2019-01-11T02:07:47.377Z,1.00
2019-01-11T02:10:16.371Z,1.00
2019-01-11T02:12:45.365Z,1.00
2019-01-11T02:15:14.589Z,1.00
2019-01-11T02:17:44.058Z,1.00
2019-01-11T02:20:15.641Z,1.00
2019-01-11T02:22:45.096Z,1.00
2019-01-11T02:25:14.762Z,1.00
2019-01-11T02:27:43.908Z,1.00
2019-01-11T02:30:18.941Z,1.00
2019-01-11T02:32:52.957Z,1.00
2019-01-11T02:35:18.916Z,1.00
2019-01-11T02:37:48.043Z,1.00
2019-01-11T02:40:17.708Z,1.00
2019-01-11T02:42:46.952Z,1.00
2019-01-11T02:45:18.719Z,1.00
2019-01-11T02:47:47.716Z,1.00
2019-01-11T02:50:17.239Z,1.00
2019-01-11T02:52:46.538Z,1.00
2019-01-11T02:55:15.573Z,1.00
2019-01-11T02:57:44.873Z,1.00
2019-01-11T03:00:18.791Z,1.00
2019-01-11T03:02:48.069Z,1.00
2019-01-11T03:05:17.510Z,1.00
2019-01-11T03:07:46.823Z,1.00
2019-01-11T03:10:17.848Z,1.00
2019-01-11T03:12:46.878Z,1.00
2019-01-11T03:15:16.764Z,1.00
2019-01-11T03:17:46.273Z,1.00
2019-01-11T03:20:15.694Z,1.00
2019-01-11T03:22:44.734Z,1.00
2019-01-11T03:25:13.964Z,1.00
2019-01-11T03:27:43.568Z,1.00
2019-01-11T03:30:15.276Z,1.00
2019-01-11T03:32:44.297Z,1.00
2019-01-11T03:35:17.923Z,1.00
2019-01-11T03:37:51.076Z,1.00
2019-01-11T03:40:22.060Z,1.00
2019-01-11T03:42:51.904Z,1.00
2019-01-11T03:45:22.306Z,1.00
2019-01-11T03:47:51.332Z,1.00
2019-01-11T03:50:20.615Z,1.00
2019-01-11T03:52:49.571Z,1.00
2019-01-11T03:55:18.793Z,1.00
2019-01-11T03:57:48.116Z,1.00
2019-01-11T04:00:21.776Z,1.00
2019-01-11T04:02:51.040Z,1.00
2019-01-11T04:05:20.347Z,1.00
2019-01-11T04:07:49.481Z,1.00
2019-01-11T04:10:20.410Z,1.00
2019-01-11T04:12:49.416Z,1.00
2019-01-11T04:15:18.986Z,1.00
2019-01-11T04:17:59.486Z,1.00
2019-01-11T04:20:28.531Z,1.00
2019-01-11T04:22:58.510Z,1.00
2019-01-11T04:25:30.455Z,1.00
2019-01-11T04:27:59.365Z,1.00
2019-01-11T04:30:28.314Z,1.00
2019-01-11T04:32:57.754Z,1.00
2019-01-11T04:35:26.800Z,1.00
2019-01-11T04:37:56.066Z,1.00
2019-01-11T04:40:25.096Z,1.00
2019-01-11T04:42:54.278Z,1.00
2019-01-11T04:45:23.518Z,1.00
2019-01-11T04:47:52.514Z,1.00
2019-01-11T04:50:21.830Z,1.00
2019-01-11T04:52:50.817Z,1.00
2019-01-11T04:55:20.521Z,1.00
2019-01-11T04:57:49.522Z,1.00
2019-01-11T05:00:20.682Z,1.00
2019-01-11T05:02:49.765Z,1.00
2019-01-11T05:05:18.843Z,1.00
2019-01-11T05:07:48.149Z,1.00
2019-01-11T05:10:18.724Z,1.00
2019-01-11T05:12:47.713Z,1.00
2019-01-11T05:15:17.249Z,1.00
2019-01-11T05:17:46.289Z,1.00
2019-01-11T05:20:17.388Z,1.00
2019-01-11T05:22:46.630Z,1.00
2019-01-11T05:25:15.867Z,1.00
2019-01-11T05:27:44.876Z,1.00
2019-01-11T05:30:16.364Z,1.00
2019-01-11T05:32:45.528Z,1.00
2019-01-11T05:35:14.909Z,1.00
2019-01-11T05:37:44.138Z,1.00
2019-01-11T05:40:16.058Z,1.00
2019-01-11T05:42:45.221Z,1.00
2019-01-11T05:45:14.204Z,1.00
2019-01-11T05:47:43.254Z,1.00
2019-01-11T05:50:14.174Z,1.00
2019-01-11T05:52:43.407Z,1.00
2019-01-11T05:55:16.941Z,1.00
2019-01-11T05:58:04.884Z,1.00
2019-01-11T06:00:33.912Z,1.00
2019-01-11T06:03:03.325Z,1.00
2019-01-11T06:05:32.813Z,1.00
2019-01-11T06:08:07.899Z,1.00
2019-01-11T06:10:37.180Z,1.00
2019-01-11T06:13:06.054Z,1.00
2019-01-11T06:15:35.300Z,1.00
2019-01-11T06:18:04.374Z,2.40
2019-01-11T06:20:33.572Z,4.10
2019-01-11T06:23:02.986Z,6.60
2019-01-11T06:25:31.968Z,7.70
2019-01-11T06:28:01.149Z,8.60
2019-01-11T06:30:30.427Z,9.40
2019-01-11T06:32:59.696Z,12.90
2019-01-11T06:35:29.037Z,14.80
2019-01-11T06:37:58.068Z,15.30
2019-01-11T06:40:27.745Z,16.10
2019-01-11T06:42:56.764Z,18.70
2019-01-11T06:45:25.745Z,20.20
2019-01-11T06:47:54.924Z,20.10
2019-01-11T06:50:23.900Z,21.70
2019-01-11T06:52:53.179Z,21.00
2019-01-11T06:55:22.139Z,23.90
2019-01-11T06:57:51.396Z,25.50
2019-01-11T07:00:20.394Z,24.80
2019-01-11T07:02:49.650Z,25.20
2019-01-11T07:05:18.500Z,25.20
2019-01-11T07:07:47.519Z,25.30
2019-01-11T07:10:18.519Z,24.50
2019-01-11T07:12:47.524Z,28.60
2019-01-11T07:15:16.617Z,28.00
2019-01-11T07:17:45.569Z,28.50
2019-01-11T07:20:14.826Z,28.90
2019-01-11T07:22:43.822Z,34.40
2019-01-11T07:25:13.279Z,36.30
2019-01-11T07:27:54.271Z,34.80
2019-01-11T07:30:25.037Z,31.70
2019-01-11T07:32:53.957Z,31.30
2019-01-11T07:35:24.955Z,30.80
2019-01-11T07:37:54.028Z,28.40
2019-01-11T07:40:30.633Z,28.70
2019-01-11T07:42:59.924Z,28.00
2019-01-11T07:45:28.963Z,29.50
2019-01-11T07:47:57.956Z,30.80
2019-01-11T07:50:27.064Z,30.70
2019-01-11T07:52:56.485Z,32.60
2019-01-11T07:55:25.392Z,31.90
2019-01-11T07:57:54.456Z,30.70
2019-01-11T08:00:23.620Z,32.10
2019-01-11T08:02:57.352Z,34.30
2019-01-11T08:05:26.625Z,33.10
2019-01-11T08:07:55.908Z,29.50
2019-01-11T08:10:25.047Z,32.10
2019-01-11T08:12:54.128Z,31.50
2019-01-11T08:15:23.291Z,31.90
2019-01-11T08:17:52.389Z,31.00
2019-01-11T08:20:21.459Z,31.70
2019-01-11T08:22:50.708Z,30.50
2019-01-11T08:25:19.898Z,32.40
2019-01-11T08:27:49.776Z,34.30
2019-01-11T08:30:18.819Z,35.40
2019-01-11T08:32:48.123Z,36.60
2019-01-11T08:35:17.128Z,41.90
2019-01-11T08:37:46.837Z,44.40
2019-01-11T08:40:16.003Z,49.30
2019-01-11T08:42:45.042Z,53.30
2019-01-11T08:45:14.168Z,57.90
2019-01-11T08:47:43.220Z,54.70
2019-01-11T08:50:16.483Z,61.90
2019-01-11T08:52:45.513Z,69.30
2019-01-11T08:55:14.816Z,70.00
2019-01-11T08:57:44.077Z,68.40
2019-01-11T09:00:13.721Z,70.50
2019-01-11T09:02:42.957Z,74.10
2019-01-11T09:05:12.225Z,72.10
2019-01-11T09:07:42.269Z,65.10
2019-01-11T09:10:12.826Z,70.00
2019-01-11T09:12:42.099Z,70.20
2019-01-11T09:15:11.477Z,76.10
2019-01-11T09:17:58.680Z,72.10
2019-01-11T09:20:28.056Z,70.90
2019-01-11T09:22:57.318Z,75.90
2019-01-11T09:25:26.377Z,74.30
2019-01-11T09:27:55.797Z,72.80
2019-01-11T09:30:24.818Z,73.30
2019-01-11T09:32:53.843Z,80.90
2019-01-11T09:35:23.246Z,82.40
2019-01-11T09:37:52.281Z,74.20
2019-01-11T09:40:21.516Z,81.10
2019-01-11T09:42:50.769Z,81.50
2019-01-11T09:45:19.827Z,78.40
2019-01-11T09:47:48.973Z,75.70
2019-01-11T09:50:17.806Z,75.80
2019-01-11T09:52:46.973Z,59.00
2019-01-11T09:55:15.915Z,65.70
2019-01-11T09:57:45.240Z,70.90
2019-01-11T10:00:18.249Z,74.60
2019-01-11T10:02:54.478Z,63.00
2019-01-11T10:05:23.500Z,67.40
2019-01-11T10:07:52.797Z,72.00
2019-01-11T10:10:22.109Z,71.00
2019-01-11T10:12:52.865Z,63.10
2019-01-11T10:15:22.039Z,66.40
2019-01-11T10:17:52.046Z,63.30
2019-01-11T10:20:21.319Z,67.70
2019-01-11T10:22:50.541Z,62.30
2019-01-11T10:25:21.132Z,62.70
2019-01-11T10:27:50.069Z,59.50
2019-01-11T10:30:22.186Z,60.60
2019-01-11T10:32:51.371Z,65.80
2019-01-11T10:35:20.448Z,70.00
2019-01-11T10:37:50.672Z,64.60
2019-01-11T10:40:19.889Z,68.60
2019-01-11T10:42:49.707Z,67.40
2019-01-11T10:45:21.513Z,67.60
2019-01-11T10:47:52.994Z,65.80
2019-01-11T10:50:22.264Z,64.00
2019-01-11T10:52:51.455Z,66.60
2019-01-11T10:55:20.500Z,61.90
2019-01-11T10:57:49.639Z,64.10
2019-01-11T11:00:21.304Z,69.20
2019-01-11T11:02:50.934Z,71.80
2019-01-11T11:05:20.056Z,75.00
2019-01-11T11:07:50.054Z,77.70
2019-01-11T11:10:19.198Z,75.70
2019-01-11T11:12:48.345Z,78.90
2019-01-11T11:15:19.232Z,82.70
2019-01-11T11:17:48.364Z,84.00
2019-01-11T11:20:19.344Z,88.00
2019-01-11T11:22:48.527Z,77.60
2019-01-11T11:25:19.632Z,81.90
2019-01-11T11:27:49.000Z,81.70
2019-01-11T11:30:19.433Z,79.80
2019-01-11T11:32:58.623Z,82.90
2019-01-11T11:35:28.750Z,78.60
2019-01-11T11:37:58.273Z,78.70
2019-01-11T11:40:28.419Z,81.60
2019-01-11T11:42:57.317Z,69.30
2019-01-11T11:45:27.143Z,76.10
2019-01-11T11:47:56.172Z,76.30
2019-01-11T11:50:25.481Z,74.00
2019-01-11T11:52:54.781Z,74.40
2019-01-11T11:55:23.782Z,74.80
2019-01-11T11:57:53.084Z,71.60
2019-01-11T12:00:25.672Z,73.50
2019-01-11T12:02:54.736Z,68.70
2019-01-11T12:05:23.942Z,64.60
2019-01-11T12:07:52.934Z,69.50
2019-01-11T12:10:22.190Z,68.20
2019-01-11T12:12:51.477Z,75.50
2019-01-11T12:15:20.761Z,75.90
2019-01-11T12:17:49.666Z,80.40
2019-01-11T12:20:25.044Z,76.10
2019-01-11T12:22:54.193Z,71.70
2019-01-11T12:25:23.258Z,72.50
2019-01-11T12:27:52.718Z,70.90
2019-01-11T12:30:21.576Z,72.60
2019-01-11T12:32:50.778Z,72.50
2019-01-11T12:35:19.680Z,70.50
2019-01-11T12:37:49.115Z,68.00
2019-01-11T12:40:18.677Z,69.70
2019-01-11T12:42:48.050Z,68.20
2019-01-11T12:45:17.264Z,70.40
2019-01-11T12:47:46.358Z,69.40
2019-01-11T12:50:20.862Z,64.70
2019-01-11T12:52:50.482Z,67.20
2019-01-11T12:55:23.690Z,65.90
2019-01-11T12:57:52.887Z,65.50
2019-01-11T13:00:56.009Z,65.60
2019-01-11T13:03:25.077Z,62.50
2019-01-11T13:05:54.344Z,65.50
2019-01-11T13:08:23.496Z,63.80
2019-01-11T13:10:52.522Z,66.80
2019-01-11T13:13:22.054Z,65.30
2019-01-11T13:15:50.987Z,62.90
2019-01-11T13:18:19.923Z,66.00
2019-01-11T13:20:49.241Z,64.00
2019-01-11T13:23:18.348Z,67.80
2019-01-11T13:25:47.417Z,68.30
2019-01-11T13:28:16.704Z,66.50
2019-01-11T13:30:45.765Z,67.30
2019-01-11T13:33:14.754Z,63.60
2019-01-11T13:35:43.752Z,69.80
2019-01-11T13:38:12.990Z,75.90
2019-01-11T13:40:42.112Z,79.10
2019-01-11T13:43:11.774Z,76.20
2019-01-11T13:45:41.019Z,77.00
2019-01-11T13:48:10.364Z,80.00
2019-01-11T13:50:40.880Z,76.10
2019-01-11T13:53:11.629Z,81.30
2019-01-11T13:55:40.814Z,78.90
2019-01-11T13:58:09.832Z,77.60
2019-01-11T14:00:39.157Z,76.40
2019-01-11T14:03:08.286Z,74.50
2019-01-11T14:05:37.417Z,74.40
2019-01-11T14:08:07.810Z,74.70
2019-01-11T14:10:36.853Z,74.00
2019-01-11T14:13:05.940Z,71.30
2019-01-11T14:15:34.931Z,68.80
2019-01-11T14:18:04.624Z,61.90
2019-01-11T14:20:33.910Z,60.00
2019-01-11T14:23:02.834Z,61.50
2019-01-11T14:25:32.040Z,62.20
2019-01-11T14:28:01.030Z,60.20
2019-01-11T14:30:30.289Z,60.00
2019-01-11T14:32:59.388Z,60.30
2019-01-11T14:35:28.736Z,63.00
2019-01-11T14:37:58.090Z,62.30
2019-01-11T14:40:27.136Z,64.10
2019-01-11T14:42:56.167Z,64.50
2019-01-11T14:45:25.426Z,63.60
2019-01-11T14:47:54.313Z,68.20
2019-01-11T14:50:23.331Z,67.00
2019-01-11T14:52:52.346Z,64.70
2019-01-11T14:55:21.542Z,70.10
2019-01-11T14:57:50.616Z,76.40
2019-01-11T15:00:21.745Z,79.40
2019-01-11T15:02:50.774Z,78.60
2019-01-11T15:05:20.109Z,79.90
2019-01-11T15:07:49.429Z,82.40
2019-01-11T15:10:18.514Z,77.90
2019-01-11T15:12:48.313Z,79.20
2019-01-11T15:15:17.564Z,77.30
2019-01-11T15:17:46.965Z,75.10
2019-01-11T15:20:17.730Z,72.00
2019-01-11T15:22:47.276Z,69.00
2019-01-11T15:25:16.585Z,72.90
2019-01-11T15:27:46.044Z,77.70
2019-01-11T15:30:17.192Z,77.40
2019-01-11T15:32:48.505Z,82.90
2019-01-11T15:35:17.934Z,85.60
2019-01-11T15:37:46.961Z,85.10
2019-01-11T15:40:21.790Z,79.50
2019-01-11T15:42:50.728Z,78.40
2019-01-11T15:45:19.768Z,79.90
2019-01-11T15:47:48.871Z,80.60
2019-01-11T15:50:47.512Z,76.50
2019-01-11T15:53:16.536Z,79.90
2019-01-11T15:55:45.833Z,79.90
2019-01-11T15:58:14.832Z,86.30
2019-01-11T16:00:45.734Z,90.90
2019-01-11T16:03:14.930Z,91.20
2019-01-11T16:05:43.888Z,91.80
2019-01-11T16:08:13.141Z,93.90
2019-01-11T16:11:47.111Z,94.10
2019-01-11T16:14:59.748Z,96.20
2019-01-11T16:17:29.233Z,97.90
2019-01-11T16:19:58.311Z,97.60
2019-01-11T16:22:27.397Z,98.60
2019-01-11T16:24:56.502Z,99.90
2019-01-11T16:27:26.304Z,99.90
2019-01-11T16:29:55.373Z,99.90
2019-01-11T16:32:24.586Z,99.90
2019-01-11T16:34:54.230Z,99.90
2019-01-11T16:37:23.502Z,99.90
2019-01-11T16:39:52.419Z,99.90
2019-01-11T16:42:21.389Z,99.90
2019-01-11T16:44:50.400Z,99.90
2019-01-11T16:47:19.446Z,99.90
2019-01-11T16:49:48.719Z,99.90
2019-01-11T16:52:18.783Z,99.90
2019-01-11T16:54:47.889Z,99.90
2019-01-11T16:57:16.904Z,99.90
2019-01-11T16:59:46.312Z,99.90
2019-01-11T17:02:15.620Z,99.90
2019-01-11T17:04:44.726Z,99.90
2019-01-11T17:07:14.248Z,99.90
2019-01-11T17:09:43.415Z,99.90
2019-01-11T17:12:13.012Z,99.90
2019-01-11T17:14:42.013Z,99.90
2019-01-11T17:17:11.213Z,99.90
2019-01-11T17:19:40.309Z,99.90
2019-01-11T17:22:09.385Z,99.90
2019-01-11T17:24:38.400Z,99.90
2019-01-11T17:27:07.444Z,99.90
2019-01-11T17:29:36.467Z,99.90
2019-01-11T17:32:05.484Z,99.90
2019-01-11T17:34:34.979Z,99.90
2019-01-11T17:37:04.372Z,99.90
2019-01-11T17:39:33.281Z,99.90
2019-01-11T17:42:02.529Z,99.90
2019-01-11T17:44:32.099Z,99.90
2019-01-11T17:47:01.225Z,99.90
2019-01-11T17:49:30.403Z,99.90
2019-01-11T17:51:59.595Z,99.90
2019-01-11T17:54:28.780Z,99.90
2019-01-11T17:56:57.717Z,99.90
2019-01-11T17:59:26.745Z,99.90
2019-01-11T18:01:56.072Z,99.90
2019-01-11T18:04:25.401Z,99.90
2019-01-11T18:06:54.317Z,99.90
2019-01-11T18:09:23.342Z,99.90
2019-01-11T18:11:52.264Z,99.90
2019-01-11T18:14:21.181Z,99.90
2019-01-11T18:16:50.354Z,99.90
2019-01-11T18:19:19.549Z,99.90
2019-01-11T18:21:48.701Z,99.90
2019-01-11T18:24:17.741Z,99.90
2019-01-11T18:26:47.431Z,99.90
2019-01-11T18:29:19.444Z,99.90
2019-01-11T18:31:48.397Z,99.90
2019-01-11T18:34:17.658Z,99.90
2019-01-11T18:36:46.664Z,99.90
2019-01-11T18:39:15.876Z,99.90
2019-01-11T18:41:44.895Z,99.90
2019-01-11T18:44:14.424Z,99.90
2019-01-11T18:46:45.901Z,99.90
2019-01-11T18:49:15.077Z,99.90
2019-01-11T18:51:44.269Z,99.90
2019-01-11T18:54:13.136Z,99.90
2019-01-11T18:56:42.028Z,99.90
2019-01-11T18:59:11.131Z,99.90
2019-01-11T19:01:40.201Z,99.90
2019-01-11T19:04:09.894Z,99.90
2019-01-11T19:06:39.273Z,99.90
2019-01-11T19:09:09.088Z,99.90
2019-01-11T19:11:38.032Z,99.90
2019-01-11T19:14:07.197Z,99.90
2019-01-11T19:16:36.099Z,99.90
2019-01-11T19:19:05.375Z,99.90
2019-01-11T19:21:34.326Z,99.90
2019-01-11T19:24:03.418Z,99.90
2019-01-11T19:26:32.440Z,99.90
2019-01-11T19:29:02.081Z,99.90
2019-01-11T19:31:31.068Z,99.90
2019-01-11T19:34:00.347Z,99.90
2019-01-11T19:36:29.352Z,99.90
2019-01-11T19:38:58.263Z,99.90
2019-01-11T19:41:27.616Z,99.90
2019-01-11T19:43:56.603Z,99.90
2019-01-11T19:46:25.567Z,99.90
2019-01-11T19:48:54.985Z,99.90
2019-01-11T19:51:27.119Z,99.90
2019-01-11T19:53:56.220Z,99.90
2019-01-11T19:56:25.484Z,99.90
2019-01-11T19:58:54.574Z,99.90
2019-01-11T20:01:23.700Z,99.90
2019-01-11T20:03:53.324Z,99.90
2019-01-11T20:06:22.378Z,99.90
2019-01-11T20:08:51.729Z,99.90
2019-01-11T20:11:21.168Z,99.90
2019-01-11T20:13:50.844Z,99.90
2019-01-11T20:16:19.981Z,99.90
2019-01-11T20:18:49.151Z,99.90
2019-01-11T20:21:18.386Z,99.90
2019-01-11T20:23:47.796Z,99.70
2019-01-11T20:26:17.104Z,98.10
2019-01-11T20:28:46.001Z,97.10
2019-01-11T20:31:15.347Z,92.40
2019-01-11T20:33:44.513Z,91.80
2019-01-11T20:36:13.586Z,94.80
2019-01-11T20:38:42.589Z,97.40
2019-01-11T20:41:11.851Z,99.90
2019-01-11T20:43:40.788Z,99.30
2019-01-11T20:46:10.442Z,99.90
2019-01-11T20:48:40.015Z,99.90
2019-01-11T20:51:08.928Z,99.90
2019-01-11T20:53:41.834Z,99.90
2019-01-11T20:56:09.503Z,99.90
2019-01-11T20:58:38.772Z,99.90
2019-01-11T21:01:08.221Z,99.90
2019-01-11T21:03:37.261Z,99.90
2019-01-11T21:06:06.506Z,99.90
2019-01-11T21:08:35.589Z,99.90
2019-01-11T21:11:04.654Z,99.90
2019-01-11T21:13:33.936Z,99.90
2019-01-11T21:16:03.108Z,99.90
2019-01-11T21:18:32.171Z,99.90
2019-01-11T21:21:01.425Z,99.90
2019-01-11T21:23:30.734Z,99.90
2019-01-11T21:25:59.884Z,99.90
2019-01-11T21:28:28.832Z,99.90
2019-01-11T21:30:57.897Z,99.90
2019-01-11T21:33:26.886Z,99.90
2019-01-11T21:35:56.229Z,99.90
2019-01-11T21:38:25.363Z,99.90
2019-01-11T21:40:54.366Z,99.90
2019-01-11T21:43:23.511Z,99.70
2019-01-11T21:45:52.534Z,99.90
2019-01-11T21:48:22.161Z,99.90
2019-01-11T21:50:51.430Z,99.90
2019-01-11T21:53:20.426Z,99.40
2019-01-11T21:55:49.518Z,95.80
2019-01-11T21:58:18.679Z,99.20
2019-01-11T22:00:48.840Z,98.30
2019-01-11T22:03:19.777Z,99.90
2019-01-11T22:05:49.054Z,99.80
2019-01-11T22:08:18.352Z,97.80
2019-01-11T22:10:47.388Z,97.50
2019-01-11T22:13:16.294Z,97.20
2019-01-11T22:15:45.407Z,97.80
2019-01-11T22:18:14.441Z,96.10
2019-01-11T22:20:43.685Z,95.50
2019-01-11T22:23:12.644Z,96.10
2019-01-11T22:25:41.642Z,96.60
2019-01-11T22:28:10.581Z,95.40
2019-01-11T22:30:40.141Z,95.20
2019-01-11T22:33:09.192Z,93.80
2019-01-11T22:35:38.472Z,93.80
2019-01-11T22:38:07.458Z,93.20
2019-01-11T22:40:36.753Z,95.30
2019-01-11T22:43:05.964Z,97.10
2019-01-11T22:45:34.929Z,97.60
2019-01-11T22:48:04.222Z,97.60
2019-01-11T22:50:33.722Z,99.90
2019-01-11T22:53:02.867Z,99.90
2019-01-11T22:55:31.852Z,99.90
2019-01-11T22:58:00.752Z,99.90
2019-01-11T23:00:51.824Z,99.90
2019-01-11T23:03:24.576Z,99.90
2019-01-11T23:05:57.023Z,99.90
2019-01-11T23:08:26.284Z,99.90
2019-01-11T23:11:17.057Z,99.90
2019-01-11T23:13:46.064Z,99.90
2019-01-11T23:16:34.860Z,99.90
2019-01-11T23:19:04.165Z,99.90
2019-01-11T23:21:33.118Z,99.90
2019-01-11T23:24:02.125Z,99.90
2019-01-11T23:26:31.772Z,99.90
2019-01-11T23:29:00.688Z,99.90
2019-01-11T23:31:29.705Z,99.90
2019-01-11T23:33:58.880Z,99.90
2019-01-11T23:36:27.747Z,99.20
2019-01-11T23:38:56.652Z,98.90
2019-01-11T23:41:25.583Z,99.30
2019-01-11T23:43:54.645Z,98.30
2019-01-11T23:46:23.681Z,98.20
2019-01-11T23:48:52.704Z,97.00
2019-01-11T23:51:21.670Z,97.00
2019-01-11T23:53:51.152Z,98.10
2019-01-11T23:56:20.070Z,99.20
2019-01-11T23:58:49.281Z,99.90
